Time;durP1;ratioP1;P1;durP2;ratioP2;P2;SDS_P1;SDS_P2;PMS_P1;PMS_P2;Temp;Humidity;BMP_temperature;BMP_pressure;BME280_temperature;BME280_humidity;BME280_pressure;Samples;Min_cycle;Max_cycle;Signal;HPM_P1;HPM_P2
2023/07/21 00:01:24;;;;;;;3.50;2.50;;;13.90;99.90;;;;;;5003593;28;20229;-80
2023/07/21 00:03:51;;;;;;;7.63;4.67;;;13.90;99.90;;;;;;5023355;28;20254;-81
2023/07/21 00:06:19;;;;;;;5.13;3.37;;;13.90;99.90;;;;;;5023233;28;20222;-81
2023/07/21 00:08:46;;;;;;;5.27;3.37;;;13.90;99.90;;;;;;5020851;28;20221;-80
2023/07/21 00:11:13;;;;;;;3.27;1.77;;;13.90;99.90;;;;;;5023660;28;20601;-80
2023/07/21 00:13:40;;;;;;;5.80;2.50;;;13.90;99.90;;;;;;5022003;28;20747;-80
2023/07/21 00:16:06;;;;;;;3.77;2.07;;;13.90;99.90;;;;;;5023261;28;20571;-80
2023/07/21 00:18:35;;;;;;;4.60;1.73;;;13.80;99.90;;;;;;5029445;28;20237;-80
2023/07/21 00:21:05;;;;;;;2.67;2.00;;;13.80;99.90;;;;;;5022668;28;20266;-80
2023/07/21 00:23:32;;;;;;;3.80;1.70;;;13.80;99.90;;;;;;5019716;28;20222;-80
2023/07/21 00:26:00;;;;;;;2.63;1.63;;;13.80;99.90;;;;;;5025548;28;20294;-80
2023/07/21 00:28:27;;;;;;;3.43;1.80;;;13.80;99.90;;;;;;5019560;28;20319;-79
2023/07/21 00:30:54;;;;;;;2.60;1.83;;;13.80;99.90;;;;;;5024549;28;20229;-79
2023/07/21 00:33:25;;;;;;;4.13;1.50;;;13.80;99.90;;;;;;5006439;28;20386;-80
2023/07/21 00:35:55;;;;;;;3.00;1.40;;;13.80;99.90;;;;;;5007565;28;20218;-80
2023/07/21 00:38:22;;;;;;;3.53;1.63;;;13.80;99.90;;;;;;5022293;28;20222;-80
2023/07/21 00:40:49;;;;;;;4.87;1.80;;;13.80;99.90;;;;;;5020236;28;20260;-79
2023/07/21 00:43:18;;;;;;;2.97;1.53;;;13.80;99.90;;;;;;5008058;28;20231;-80
2023/07/21 00:45:46;;;;;;;2.90;1.70;;;13.80;99.90;;;;;;5016828;28;20305;-79
2023/07/21 00:48:14;;;;;;;2.90;1.90;;;13.80;99.90;;;;;;5012689;28;20885;-79
2023/07/21 00:50:45;;;;;;;2.80;1.60;;;13.80;99.90;;;;;;5029791;28;20214;-79
2023/07/21 00:53:13;;;;;;;3.37;1.50;;;13.70;99.90;;;;;;5044433;28;20700;-77
2023/07/21 00:55:41;;;;;;;4.53;1.83;;;13.80;99.90;;;;;;5009298;28;20590;-79
2023/07/21 00:58:09;;;;;;;3.20;1.50;;;13.70;99.90;;;;;;5009965;28;20225;-79
2023/07/21 01:00:37;;;;;;;2.47;1.60;;;13.70;99.90;;;;;;5021141;28;20222;-80
2023/07/21 01:03:05;;;;;;;3.77;1.70;;;13.60;99.90;;;;;;5038506;28;20255;-80
2023/07/21 01:05:34;;;;;;;5.03;1.90;;;13.60;99.90;;;;;;5019235;28;20242;-79
2023/07/21 01:08:04;;;;;;;5.43;1.87;;;13.50;99.90;;;;;;5022320;28;20284;-79
2023/07/21 01:10:34;;;;;;;4.13;2.00;;;13.40;99.90;;;;;;5011503;28;20229;-80
2023/07/21 01:13:02;;;;;;;3.37;1.83;;;13.40;99.90;;;;;;5010967;28;20692;-79
2023/07/21 01:15:29;;;;;;;6.03;2.17;;;13.30;99.90;;;;;;5025738;28;20243;-79
2023/07/21 01:17:57;;;;;;;3.83;1.83;;;13.20;99.90;;;;;;5024619;28;20700;-79
2023/07/21 01:20:27;;;;;;;3.90;1.90;;;13.10;99.90;;;;;;5015766;28;20306;-79
2023/07/21 01:23:03;;;;;;;2.57;1.50;;;13.00;99.90;;;;;;5006196;28;20227;-78
2023/07/21 01:25:34;;;;;;;3.47;1.50;;;13.00;99.90;;;;;;5022067;28;20714;-79
2023/07/21 01:28:02;;;;;;;2.50;1.57;;;12.90;99.90;;;;;;5025168;28;20646;-79
2023/07/21 01:30:30;;;;;;;4.30;1.70;;;12.80;99.90;;;;;;5023344;28;20225;-80
2023/07/21 01:32:57;;;;;;;4.47;1.83;;;12.70;99.90;;;;;;5027712;28;20232;-79
2023/07/21 01:35:28;;;;;;;3.17;1.80;;;12.60;99.90;;;;;;5026760;28;20898;-79
2023/07/21 01:37:56;;;;;;;4.13;1.67;;;12.50;99.90;;;;;;5023895;28;20278;-79
2023/07/21 01:40:26;;;;;;;3.40;1.77;;;12.50;99.90;;;;;;5027327;28;21189;-79
2023/07/21 01:42:54;;;;;;;3.37;1.70;;;12.40;99.90;;;;;;5027798;28;20217;-78
2023/07/21 01:45:21;;;;;;;3.43;1.80;;;12.40;99.90;;;;;;5018884;28;20893;-79
2023/07/21 01:47:48;;;;;;;2.90;1.80;;;12.30;99.90;;;;;;5010701;28;20230;-79
2023/07/21 01:50:18;;;;;;;3.37;1.77;;;12.30;99.90;;;;;;5022032;28;20230;-80
2023/07/21 01:52:46;;;;;;;4.53;2.00;;;12.20;99.90;;;;;;5028229;28;20344;-79
2023/07/21 01:55:20;;;;;;;3.93;1.90;;;12.20;99.90;;;;;;5020528;28;20338;-79
2023/07/21 01:57:50;;;;;;;3.60;1.90;;;12.10;99.90;;;;;;5009275;28;20273;-79
2023/07/21 02:00:22;;;;;;;2.80;1.93;;;12.00;99.90;;;;;;5011947;28;20227;-79
2023/07/21 02:02:50;;;;;;;4.60;2.20;;;12.00;99.90;;;;;;5019665;28;20229;-79
2023/07/21 02:05:22;;;;;;;3.33;1.80;;;12.00;99.90;;;;;;5026959;28;20252;-80
2023/07/21 02:07:48;;;;;;;3.53;1.83;;;11.90;99.90;;;;;;5010012;28;20221;-80
2023/07/21 02:10:15;;;;;;;2.60;1.80;;;11.90;99.90;;;;;;5025638;28;20330;-78
2023/07/21 02:12:46;;;;;;;4.70;2.00;;;11.80;99.90;;;;;;5045106;28;20309;-80
2023/07/21 02:15:13;;;;;;;2.60;1.57;;;11.80;99.90;;;;;;5024220;28;20225;-80
2023/07/21 02:17:42;;;;;;;4.27;2.30;;;11.70;99.90;;;;;;5012373;28;20865;-80
2023/07/21 02:20:09;;;;;;;3.67;1.87;;;11.70;99.90;;;;;;5025712;28;20322;-81
2023/07/21 02:22:39;;;;;;;4.10;2.40;;;11.60;99.90;;;;;;5023708;28;20236;-81
2023/07/21 02:25:09;;;;;;;2.47;1.67;;;11.60;99.90;;;;;;5021406;28;20332;-80
2023/07/21 02:27:36;;;;;;;3.10;1.90;;;11.60;99.90;;;;;;5020732;28;20262;-80
2023/07/21 02:30:04;;;;;;;2.60;2.13;;;11.50;99.90;;;;;;5009333;28;20642;-80
2023/07/21 02:32:31;;;;;;;3.80;2.10;;;11.50;99.90;;;;;;5010070;28;20225;-80
2023/07/21 02:34:59;;;;;;;3.70;1.97;;;11.50;99.90;;;;;;5010258;28;20259;-80
2023/07/21 02:37:28;;;;;;;3.77;2.17;;;11.50;99.90;;;;;;5024064;28;20324;-79
2023/07/21 02:39:56;;;;;;;2.67;2.20;;;11.40;99.90;;;;;;5025580;28;20792;-80
2023/07/21 02:42:23;;;;;;;2.80;1.90;;;11.40;99.90;;;;;;5020995;28;20305;-79
2023/07/21 02:44:51;;;;;;;2.37;1.57;;;11.40;99.90;;;;;;5007870;28;20220;-79
2023/07/21 02:47:18;;;;;;;2.50;1.70;;;11.40;99.90;;;;;;5010648;28;20216;-80
2023/07/21 02:49:45;;;;;;;2.30;1.50;;;11.40;99.90;;;;;;5014549;28;20978;-78
2023/07/21 02:52:13;;;;;;;2.80;2.00;;;11.40;99.90;;;;;;5031712;28;20277;-79
2023/07/21 02:54:46;;;;;;;3.53;1.90;;;11.30;99.90;;;;;;5013451;28;20740;-80
2023/07/21 02:57:12;;;;;;;3.27;2.00;;;11.30;99.90;;;;;;5011148;28;20353;-80
2023/07/21 02:59:41;;;;;;;2.43;2.00;;;11.30;99.90;;;;;;5012446;28;20227;-79
2023/07/21 03:02:08;;;;;;;3.17;2.10;;;11.30;99.90;;;;;;5009078;28;20224;-79
2023/07/21 03:04:43;;;;;;;5.53;2.27;;;11.20;99.90;;;;;;5026944;28;20227;-79
2023/07/21 03:07:14;;;;;;;2.97;2.23;;;11.20;99.90;;;;;;5007226;28;20221;-79
2023/07/21 03:09:45;;;;;;;4.57;2.40;;;11.20;99.90;;;;;;5010935;28;20646;-78
2023/07/21 03:12:24;;;;;;;3.10;1.90;;;11.20;99.90;;;;;;5011819;28;20315;-79
2023/07/21 03:14:58;;;;;;;4.10;1.90;;;11.20;99.90;;;;;;5027703;28;20222;-79
2023/07/21 03:17:26;;;;;;;3.63;1.90;;;11.10;99.90;;;;;;5043668;28;22160;-79
2023/07/21 03:19:53;;;;;;;3.10;1.80;;;11.10;99.90;;;;;;5025711;28;20649;-80
2023/07/21 03:22:21;;;;;;;4.60;2.10;;;11.10;99.90;;;;;;5009520;28;20230;-79
2023/07/21 03:24:49;;;;;;;5.07;2.37;;;11.10;99.90;;;;;;5031455;28;20209;-79
2023/07/21 03:27:17;;;;;;;3.00;1.90;;;11.10;99.90;;;;;;5009682;28;20228;-78
2023/07/21 03:29:44;;;;;;;2.70;2.00;;;11.20;99.90;;;;;;5017149;28;20228;-80
2023/07/21 03:32:11;;;;;;;3.40;2.13;;;11.20;99.90;;;;;;5012450;28;20224;-77
2023/07/21 03:34:38;;;;;;;4.40;1.90;;;11.30;99.90;;;;;;5027421;28;20755;-78
2023/07/21 03:37:08;;;;;;;4.53;2.60;;;11.30;99.90;;;;;;5040972;28;20240;-77
2023/07/21 03:39:36;;;;;;;3.70;2.27;;;11.30;99.90;;;;;;5021905;28;20225;-78
2023/07/21 03:42:03;;;;;;;4.13;2.30;;;11.40;99.90;;;;;;5005739;28;20229;-79
2023/07/21 03:44:30;;;;;;;2.77;2.20;;;11.40;99.90;;;;;;5003831;28;20253;-80
2023/07/21 03:46:57;;;;;;;5.07;3.27;;;11.50;99.90;;;;;;5013707;28;20221;-78
2023/07/21 03:49:35;;;;;;;4.50;2.30;;;11.50;99.90;;;;;;5009542;28;20741;-77
2023/07/21 03:52:08;;;;;;;3.67;2.37;;;11.60;99.90;;;;;;5004011;28;20224;-79
2023/07/21 03:54:36;;;;;;;3.10;1.90;;;11.60;99.90;;;;;;5001313;28;20339;-79
2023/07/21 03:57:03;;;;;;;2.43;2.20;;;11.70;99.90;;;;;;5021511;28;20232;-79
2023/07/21 03:59:30;;;;;;;4.47;2.47;;;11.70;99.90;;;;;;5021249;28;20227;-78
2023/07/21 04:01:57;;;;;;;5.13;2.20;;;11.70;99.90;;;;;;5005443;28;20229;-79
2023/07/21 04:04:24;;;;;;;4.10;2.60;;;11.80;99.90;;;;;;5001428;28;20337;-78
2023/07/21 04:06:51;;;;;;;3.67;2.70;;;11.80;99.90;;;;;;5019688;28;20251;-79
2023/07/21 04:09:18;;;;;;;3.03;2.43;;;11.80;99.90;;;;;;5015837;28;20952;-79
2023/07/21 04:11:46;;;;;;;4.73;2.80;;;11.90;99.90;;;;;;5019418;28;20219;-79
2023/07/21 04:14:13;;;;;;;4.03;2.33;;;11.90;99.90;;;;;;5006541;28;20230;-79
2023/07/21 04:16:41;;;;;;;4.50;2.60;;;12.00;99.90;;;;;;5020777;28;20218;-79
2023/07/21 04:19:08;;;;;;;5.27;2.47;;;12.00;99.90;;;;;;5020780;28;20694;-79
2023/07/21 04:21:35;;;;;;;3.43;2.30;;;12.00;99.90;;;;;;5003818;28;20224;-85
2023/07/21 04:24:02;;;;;;;4.67;2.37;;;12.10;99.90;;;;;;5006051;28;20883;-84
2023/07/21 04:26:30;;;;;;;2.80;2.50;;;12.10;99.90;;;;;;5010522;28;20762;-79
2023/07/21 04:28:58;;;;;;;4.40;2.50;;;12.10;99.90;;;;;;5023898;28;20747;-80
2023/07/21 04:31:28;;;;;;;3.30;2.40;;;12.20;99.90;;;;;;5007748;28;20669;-80
2023/07/21 04:34:11;;;;;;;3.97;2.53;;;12.20;99.90;;;;;;5019575;28;20227;-80
2023/07/21 04:36:40;;;;;;;4.30;2.70;;;12.20;99.90;;;;;;5023414;28;20853;-80
2023/07/21 04:39:23;;;;;;;3.13;2.20;;;12.30;99.90;;;;;;5006835;28;20229;-80
2023/07/21 04:41:50;;;;;;;5.63;2.57;;;12.30;99.90;;;;;;5003611;28;20220;-79
2023/07/21 04:44:20;;;;;;;3.03;2.50;;;12.30;99.90;;;;;;5020878;28;20216;-80
2023/07/21 04:46:47;;;;;;;3.37;2.50;;;12.40;99.90;;;;;;5011661;28;20227;-80
2023/07/21 04:49:17;;;;;;;3.63;2.50;;;12.40;99.90;;;;;;5010259;28;20317;-80
2023/07/21 04:51:46;;;;;;;6.10;2.60;;;12.50;99.90;;;;;;5010586;28;20251;-80
2023/07/21 04:54:13;;;;;;;3.43;2.20;;;12.50;99.90;;;;;;5026306;28;20927;-80
2023/07/21 04:56:40;;;;;;;5.77;2.80;;;12.50;99.90;;;;;;5027338;28;20514;-80
2023/07/21 04:59:08;;;;;;;3.80;2.57;;;12.50;99.90;;;;;;5039430;28;20250;-80
2023/07/21 05:01:36;;;;;;;5.37;2.20;;;12.60;99.90;;;;;;5025082;28;20227;-80
2023/07/21 05:04:03;;;;;;;3.83;2.60;;;12.60;99.90;;;;;;5013560;28;20239;-80
2023/07/21 05:06:30;;;;;;;4.47;2.53;;;12.60;99.90;;;;;;5006580;28;20220;-80
2023/07/21 05:08:57;;;;;;;3.93;2.43;;;12.70;99.90;;;;;;5025510;28;20229;-85
2023/07/21 05:11:25;;;;;;;3.00;2.10;;;12.70;99.90;;;;;;5027063;28;20234;-83
2023/07/21 05:13:52;;;;;;;3.83;2.40;;;12.80;99.90;;;;;;5030259;28;20278;-83
2023/07/21 05:16:26;;;;;;;6.27;2.77;;;12.90;99.90;;;;;;5022418;28;20737;-80
2023/07/21 05:19:12;;;;;;;3.97;2.00;;;12.90;99.90;;;;;;5020437;28;20219;-80
2023/07/21 05:22:15;;;;;;;5.27;1.93;;;13.00;99.90;;;;;;5021795;28;20272;-80
2023/07/21 05:25:01;;;;;;;4.03;2.30;;;13.10;99.90;;;;;;5025460;28;20233;-81
2023/07/21 05:27:28;;;;;;;6.83;2.07;;;13.20;99.90;;;;;;5007507;28;20227;-80
2023/07/21 05:29:58;;;;;;;2.83;1.90;;;13.30;99.90;;;;;;5028487;28;20224;-80
2023/07/21 05:32:26;;;;;;;5.57;2.00;;;13.40;99.90;;;;;;5011412;28;20246;-80
2023/07/21 05:35:01;;;;;;;3.33;2.23;;;13.50;99.90;;;;;;5020362;28;20232;-80
2023/07/21 05:37:30;;;;;;;3.87;1.70;;;13.60;99.90;;;;;;5020768;28;20791;-80
2023/07/21 05:39:57;;;;;;;4.03;1.67;;;13.60;99.90;;;;;;5015826;28;20224;-80
2023/07/21 05:42:26;;;;;;;3.77;1.50;;;13.70;99.90;;;;;;5012556;28;20305;-80
2023/07/21 05:44:56;;;;;;;2.47;1.33;;;13.80;99.90;;;;;;5028153;28;20291;-80
2023/07/21 05:47:23;;;;;;;2.23;1.50;;;13.80;99.90;;;;;;5015684;28;21002;-80
2023/07/21 05:49:58;;;;;;;4.30;1.40;;;13.80;99.90;;;;;;5012141;28;20229;-80
2023/07/21 05:52:26;;;;;;;2.77;1.50;;;13.80;99.90;;;;;;5020371;28;20257;-80
2023/07/21 05:54:54;;;;;;;3.43;1.30;;;13.90;99.90;;;;;;5009865;28;20273;-80
2023/07/21 05:57:24;;;;;;;3.63;1.67;;;13.90;99.90;;;;;;5011939;28;20232;-80
2023/07/21 05:59:52;;;;;;;4.57;1.70;;;14.00;99.90;;;;;;5013272;28;20222;-80
2023/07/21 06:02:19;;;;;;;4.40;1.53;;;14.00;99.90;;;;;;5004758;28;20244;-81
2023/07/21 06:04:56;;;;;;;2.87;1.40;;;14.00;99.90;;;;;;5010588;28;20289;-80
2023/07/21 06:07:30;;;;;;;3.17;1.60;;;14.10;99.90;;;;;;5026579;28;20259;-80
2023/07/21 06:10:30;;;;;;;2.97;1.30;;;14.10;99.90;;;;;;5003451;28;20231;-80
2023/07/21 06:13:16;;;;;;;3.47;1.47;;;14.20;99.90;;;;;;5026599;28;20237;-80
2023/07/21 06:16:03;;;;;;;3.77;1.70;;;14.20;99.90;;;;;;5044681;28;20764;-80
2023/07/21 06:18:36;;;;;;;3.50;1.40;;;14.40;99.90;;;;;;5019551;28;20331;-81
2023/07/21 06:21:03;;;;;;;4.40;1.60;;;14.40;99.90;;;;;;5008841;28;20896;-80
2023/07/21 06:23:31;;;;;;;5.97;1.77;;;14.40;99.90;;;;;;5015784;28;20229;-80
2023/07/21 06:25:58;;;;;;;3.90;1.70;;;14.50;99.90;;;;;;5045773;28;20255;-80
2023/07/21 06:28:25;;;;;;;3.83;1.50;;;14.50;99.90;;;;;;5053790;28;20310;-80
2023/07/21 06:30:52;;;;;;;3.50;1.60;;;14.50;99.90;;;;;;5020551;28;20224;-80
2023/07/21 06:33:38;;;;;;;2.43;1.40;;;14.60;99.90;;;;;;5018629;28;20872;-80
2023/07/21 06:36:37;;;;;;;3.87;1.57;;;14.70;99.90;;;;;;5019618;28;20231;-80
2023/07/21 06:39:29;;;;;;;3.13;1.37;;;14.80;99.90;;;;;;5020686;28;20250;-80
2023/07/21 06:42:28;;;;;;;3.50;1.60;;;14.90;99.90;;;;;;4996193;28;20231;-81
2023/07/21 06:45:18;;;;;;;1.87;1.20;;;15.00;99.90;;;;;;5015895;28;20299;-81
2023/07/21 06:47:54;;;;;;;3.93;1.47;;;15.10;99.90;;;;;;5012197;28;20304;-80
2023/07/21 06:50:37;;;;;;;3.40;1.20;;;15.30;99.90;;;;;;5032950;28;20235;-81
2023/07/21 06:53:05;;;;;;;1.83;1.17;;;15.50;99.90;;;;;;5029495;28;20731;-81
2023/07/21 06:55:33;;;;;;;3.17;1.50;;;15.70;99.90;;;;;;5019442;28;20304;-83
2023/07/21 06:58:00;;;;;;;2.27;1.50;;;16.00;99.90;;;;;;5022988;28;20224;-82
2023/07/21 07:00:26;;;;;;;4.13;1.57;;;16.20;99.90;;;;;;5018403;28;20251;-82
2023/07/21 07:02:56;;;;;;;3.63;2.03;;;16.40;99.90;;;;;;5027978;28;20255;-82
2023/07/21 07:05:24;;;;;;;2.60;1.40;;;16.70;99.90;;;;;;5016510;28;20263;-82
2023/07/21 07:07:53;;;;;;;3.03;1.40;;;17.00;99.90;;;;;;5019282;28;20742;-82
2023/07/21 07:10:21;;;;;;;2.50;1.20;;;17.20;99.90;;;;;;5015329;28;20286;-83
2023/07/21 07:12:50;;;;;;;3.53;1.50;;;17.50;99.90;;;;;;5032327;28;20707;-82
2023/07/21 07:15:17;;;;;;;3.73;1.30;;;17.80;99.90;;;;;;5034369;28;20217;-82
2023/07/21 07:17:43;;;;;;;4.40;1.38;;;18.20;99.90;;;;;;5022406;28;20251;-82
2023/07/21 07:20:12;;;;;;;4.22;1.40;;;18.60;99.90;;;;;;5045623;28;20240;-82
2023/07/21 07:22:39;;;;;;;2.72;1.00;;;19.10;99.90;;;;;;5031360;28;20964;-82
2023/07/21 07:25:07;;;;;;;3.80;1.40;;;19.60;99.90;;;;;;5030126;28;20328;-82
2023/07/21 07:27:34;;;;;;;3.30;1.38;;;20.10;99.90;;;;;;5032320;28;20237;-82
2023/07/21 07:30:02;;;;;;;1.95;1.25;;;20.70;99.90;;;;;;5032665;28;20578;-82
2023/07/21 07:32:29;;;;;;;2.33;1.20;;;21.20;99.90;;;;;;5027541;28;20612;-83
2023/07/21 07:34:58;;;;;;;2.15;1.40;;;21.60;99.90;;;;;;5029944;28;20224;-82
2023/07/21 07:37:27;;;;;;;2.83;1.20;;;22.00;99.90;;;;;;5028863;28;20233;-82
2023/07/21 07:39:53;;;;;;;3.90;1.60;;;22.30;99.90;;;;;;5028284;28;20245;-82
2023/07/21 07:42:21;;;;;;;2.28;1.33;;;22.50;99.80;;;;;;5027405;28;20703;-83
2023/07/21 07:44:48;;;;;;;2.20;1.40;;;22.70;99.90;;;;;;5028698;28;20225;-83
2023/07/21 07:47:16;;;;;;;2.30;1.60;;;22.90;97.30;;;;;;5014999;28;20227;-82
2023/07/21 07:49:43;;;;;;;3.45;1.58;;;22.90;96.20;;;;;;5014771;28;20636;-82
2023/07/21 07:52:09;;;;;;;4.15;1.42;;;23.00;97.10;;;;;;5027793;28;20221;-83
2023/07/21 07:54:36;;;;;;;2.15;1.50;;;23.10;96.70;;;;;;5037381;28;20217;-82
2023/07/21 07:57:03;;;;;;;2.40;1.50;;;23.00;95.70;;;;;;5026848;28;20228;-82
2023/07/21 07:59:30;;;;;;;2.55;1.60;;;22.80;95.70;;;;;;5030368;28;20216;-83
2023/07/21 08:01:58;;;;;;;2.72;2.08;;;22.50;95.10;;;;;;5008751;28;20315;-81
2023/07/21 08:04:26;;;;;;;2.83;1.25;;;22.20;96.20;;;;;;5028630;28;20695;-81
2023/07/21 08:06:52;;;;;;;3.33;1.65;;;21.80;96.90;;;;;;5024957;28;20233;-81
2023/07/21 08:09:19;;;;;;;1.98;1.50;;;21.40;97.50;;;;;;5030088;28;20494;-81
2023/07/21 08:11:46;;;;;;;2.78;1.67;;;21.00;97.60;;;;;;5031782;28;20254;-81
2023/07/21 08:14:12;;;;;;;4.13;1.80;;;20.60;97.90;;;;;;5033761;28;20221;-81
2023/07/21 08:16:39;;;;;;;4.32;1.60;;;20.40;98.20;;;;;;5045464;28;20231;-82
2023/07/21 08:19:06;;;;;;;1.52;1.38;;;20.10;98.60;;;;;;5014808;28;20247;-81
2023/07/21 08:21:34;;;;;;;2.67;1.35;;;19.80;99.30;;;;;;5036400;28;20224;-81
2023/07/21 08:24:01;;;;;;;2.55;1.70;;;19.70;99.90;;;;;;5030914;28;20231;-81
2023/07/21 08:26:27;;;;;;;2.72;1.75;;;19.50;99.90;;;;;;5027649;28;20229;-81
2023/07/21 08:28:55;;;;;;;2.85;1.60;;;19.50;99.90;;;;;;5049159;28;20225;-81
2023/07/21 08:31:22;;;;;;;6.82;4.25;;;19.50;99.90;;;;;;5014971;28;20223;-81
2023/07/21 08:33:50;;;;;;;3.60;2.00;;;19.50;99.90;;;;;;5024563;28;20232;-81
2023/07/21 08:36:17;;;;;;;2.42;1.80;;;19.50;99.90;;;;;;5027126;28;20228;-81
2023/07/21 08:38:45;;;;;;;4.80;1.98;;;19.50;99.90;;;;;;5038714;28;20231;-81
2023/07/21 08:41:17;;;;;;;3.92;1.70;;;19.60;99.90;;;;;;5026997;28;20218;-82
2023/07/21 08:43:44;;;;;;;2.92;1.83;;;19.60;99.90;;;;;;5032697;28;20298;-81
2023/07/21 08:46:10;;;;;;;4.43;1.55;;;19.60;99.90;;;;;;5029207;28;20274;-82
2023/07/21 08:48:40;;;;;;;2.13;1.30;;;19.70;99.90;;;;;;5027333;28;20221;-82
2023/07/21 08:51:07;;;;;;;3.25;1.30;;;19.70;99.90;;;;;;5029169;28;20242;-81
2023/07/21 08:53:34;;;;;;;2.55;1.33;;;19.70;99.90;;;;;;5042151;28;20702;-81
2023/07/21 08:56:03;;;;;;;4.57;1.70;;;19.80;99.90;;;;;;5029659;28;20248;-81
2023/07/21 08:58:30;;;;;;;3.83;2.03;;;19.90;99.90;;;;;;5030750;28;20244;-82
2023/07/21 09:00:57;;;;;;;2.95;1.65;;;20.10;99.90;;;;;;5034558;28;20650;-81
2023/07/21 09:03:27;;;;;;;3.40;1.60;;;20.40;99.90;;;;;;5027826;28;20241;-81
2023/07/21 09:05:56;;;;;;;4.32;2.05;;;20.80;99.90;;;;;;5010625;28;20258;-81
2023/07/21 09:08:24;;;;;;;5.60;1.80;;;21.40;99.90;;;;;;5034547;28;20220;-82
2023/07/21 09:10:51;;;;;;;3.22;1.52;;;21.90;99.30;;;;;;5028423;28;20221;-81
2023/07/21 09:13:20;;;;;;;3.58;1.35;;;22.50;99.10;;;;;;5036648;28;20739;-81
2023/07/21 09:15:51;;;;;;;3.78;1.67;;;23.10;98.20;;;;;;5031017;28;20225;-82
2023/07/21 09:18:18;;;;;;;3.50;1.80;;;23.80;97.00;;;;;;5022803;28;20276;-81
2023/07/21 09:20:49;;;;;;;3.53;1.50;;;24.50;96.70;;;;;;5017984;28;20225;-82
2023/07/21 09:23:19;;;;;;;2.88;1.55;;;25.00;95.60;;;;;;5024540;28;20213;-82
2023/07/21 09:25:49;;;;;;;4.63;1.92;;;25.50;92.00;;;;;;5029488;28;20229;-82
2023/07/21 09:28:16;;;;;;;3.42;1.60;;;25.90;92.00;;;;;;5031106;28;21047;-81
2023/07/21 09:30:51;;;;;;;3.25;1.25;;;26.10;92.40;;;;;;5023471;28;20243;-81
2023/07/21 09:33:23;;;;;;;2.15;1.15;;;26.20;91.00;;;;;;5018772;28;20232;-81
2023/07/21 09:35:50;;;;;;;1.98;1.30;;;26.20;90.70;;;;;;5028155;28;20235;-82
2023/07/21 09:38:17;;;;;;;2.83;1.20;;;26.10;91.20;;;;;;5029376;28;20217;-81
2023/07/21 09:40:44;;;;;;;3.95;1.50;;;26.00;90.80;;;;;;5043493;28;20232;-83
2023/07/21 09:43:11;;;;;;;3.67;1.33;;;25.80;90.60;;;;;;5011024;28;20252;-82
2023/07/21 09:45:38;;;;;;;2.75;1.58;;;25.60;91.00;;;;;;5011225;28;20248;-79
2023/07/21 09:48:06;;;;;;;1.77;1.30;;;25.50;90.70;;;;;;5024525;28;20714;-79
2023/07/21 09:50:33;;;;;;;1.85;1.42;;;25.60;90.40;;;;;;5003493;28;20223;-79
2023/07/21 09:53:04;;;;;;;2.88;1.50;;;25.80;90.70;;;;;;5024826;28;20224;-80
2023/07/21 09:55:37;;;;;;;1.85;1.30;;;26.00;88.90;;;;;;5031412;28;20245;-80
2023/07/21 09:58:07;;;;;;;2.15;1.23;;;26.30;87.90;;;;;;5028787;28;20612;-80
2023/07/21 10:00:35;;;;;;;3.35;1.30;;;26.60;86.50;;;;;;5051036;28;20899;-80
2023/07/21 10:03:03;;;;;;;1.70;1.00;;;26.80;85.00;;;;;;5027912;28;20311;-79
2023/07/21 10:05:31;;;;;;;3.83;1.50;;;27.10;85.30;;;;;;5019302;28;20257;-80
2023/07/21 10:08:00;;;;;;;1.40;0.85;;;27.30;81.90;;;;;;5009046;28;20306;-80
2023/07/21 10:10:27;;;;;;;1.60;1.30;;;27.40;78.30;;;;;;5034182;28;20217;-80
2023/07/21 10:12:54;;;;;;;2.20;1.15;;;27.50;79.40;;;;;;5033911;28;20309;-80
2023/07/21 10:15:22;;;;;;;2.17;1.30;;;27.60;77.50;;;;;;5018542;28;20230;-80
2023/07/21 10:17:57;;;;;;;2.63;1.30;;;27.80;77.90;;;;;;5030502;28;20308;-80
2023/07/21 10:20:46;;;;;;;3.30;1.20;;;27.90;77.50;;;;;;5016206;28;20232;-80
2023/07/21 10:23:14;;;;;;;2.80;1.00;;;28.00;76.00;;;;;;5046691;28;20939;-80
2023/07/21 10:26:00;;;;;;;2.90;1.40;;;28.00;75.50;;;;;;5030092;28;20235;-80
2023/07/21 10:28:37;;;;;;;2.75;1.10;;;27.90;73.90;;;;;;5030145;28;20793;-80
2023/07/21 10:31:29;;;;;;;2.75;1.25;;;27.90;73.30;;;;;;5018289;28;20224;-80
2023/07/21 10:34:03;;;;;;;1.65;1.00;;;27.80;71.80;;;;;;5029706;28;20287;-80
2023/07/21 10:36:42;;;;;;;1.63;1.20;;;27.80;71.30;;;;;;5029120;28;20212;-80
2023/07/21 10:39:10;;;;;;;2.53;1.23;;;27.80;69.80;;;;;;5044716;28;20244;-80
2023/07/21 10:41:37;;;;;;;1.88;1.20;;;27.80;73.30;;;;;;5013949;28;20616;-80
2023/07/21 10:44:06;;;;;;;2.15;1.42;;;28.10;71.60;;;;;;5027954;28;20225;-80
2023/07/21 10:46:36;;;;;;;2.67;1.20;;;28.40;71.50;;;;;;5027085;28;20236;-79
2023/07/21 10:49:03;;;;;;;2.80;1.27;;;28.70;71.20;;;;;;5031113;28;20925;-80
2023/07/21 10:51:29;;;;;;;3.50;1.35;;;29.10;67.80;;;;;;5014160;28;20225;-80
2023/07/21 10:53:57;;;;;;;3.45;1.35;;;29.40;66.10;;;;;;5019068;28;20219;-80
2023/07/21 10:56:24;;;;;;;1.88;1.10;;;29.50;64.80;;;;;;5024118;28;20315;-80
2023/07/21 10:58:51;;;;;;;2.63;1.10;;;29.70;64.20;;;;;;5026666;28;20228;-80
2023/07/21 11:01:19;;;;;;;3.72;1.17;;;29.80;62.90;;;;;;5025882;28;20221;-80
2023/07/21 11:03:46;;;;;;;4.10;1.52;;;29.80;59.30;;;;;;5018003;28;20227;-80
2023/07/21 11:06:13;;;;;;;3.72;1.55;;;29.90;60.80;;;;;;5042687;28;20225;-80
2023/07/21 11:08:39;;;;;;;1.95;1.23;;;29.90;60.60;;;;;;5020555;28;20343;-80
2023/07/21 11:11:09;;;;;;;2.47;1.75;;;30.00;60.80;;;;;;5026404;28;20217;-81
2023/07/21 11:13:37;;;;;;;2.95;1.30;;;30.00;60.00;;;;;;5031028;28;20324;-80
2023/07/21 11:16:05;;;;;;;1.15;0.90;;;30.10;59.20;;;;;;5011472;28;20316;-80
2023/07/21 11:18:32;;;;;;;1.40;1.00;;;30.20;57.40;;;;;;5043537;28;20228;-80
2023/07/21 11:20:58;;;;;;;1.42;1.00;;;30.30;57.40;;;;;;5047441;28;20656;-80
2023/07/21 11:23:26;;;;;;;2.45;1.23;;;30.20;57.10;;;;;;5015962;28;20227;-80
2023/07/21 11:26:04;;;;;;;3.05;1.00;;;30.10;56.60;;;;;;5027530;28;20232;-80
2023/07/21 11:28:33;;;;;;;2.10;1.02;;;30.00;55.90;;;;;;5028985;28;20710;-80
2023/07/21 11:31:01;;;;;;;2.75;0.93;;;29.80;56.50;;;;;;5028442;28;20785;-80
2023/07/21 11:33:43;;;;;;;1.90;0.90;;;29.60;56.20;;;;;;5050984;28;20311;-80
2023/07/21 11:36:14;;;;;;;0.88;0.88;;;29.30;55.90;;;;;;5030223;28;20648;-81
2023/07/21 11:38:41;;;;;;;1.05;0.90;;;29.10;56.50;;;;;;5035055;28;20898;-81
2023/07/21 11:41:08;;;;;;;1.55;0.98;;;28.90;56.50;;;;;;5028262;28;20228;-80
2023/07/21 11:43:48;;;;;;;1.90;0.90;;;28.70;56.70;;;;;;5026172;28;20232;-80
2023/07/21 11:46:23;;;;;;;4.07;1.17;;;28.50;56.90;;;;;;5024692;28;20248;-80
2023/07/21 11:48:51;;;;;;;1.92;1.20;;;28.40;57.30;;;;;;5027901;28;20229;-80
2023/07/21 11:51:17;;;;;;;1.70;0.82;;;28.20;57.50;;;;;;5023775;28;20228;-80
2023/07/21 11:53:46;;;;;;;2.90;0.85;;;28.00;57.30;;;;;;5029177;28;20229;-80
2023/07/21 11:56:13;;;;;;;3.28;1.10;;;27.90;57.00;;;;;;5027008;28;20259;-80
2023/07/21 11:58:40;;;;;;;4.03;1.27;;;27.60;57.60;;;;;;5015405;28;20433;-80
2023/07/21 12:01:08;;;;;;;1.42;1.00;;;27.40;57.60;;;;;;5014552;28;20241;-80
2023/07/21 12:03:35;;;;;;;1.67;1.00;;;27.20;57.70;;;;;;5014480;28;20229;-80
2023/07/21 12:06:03;;;;;;;2.25;0.77;;;26.90;58.30;;;;;;5027395;28;20240;-80
2023/07/21 12:08:30;;;;;;;3.88;1.40;;;26.70;57.70;;;;;;5014719;28;20564;-80
2023/07/21 12:10:57;;;;;;;1.58;1.15;;;26.40;58.40;;;;;;5046449;28;20232;-80
2023/07/21 12:13:25;;;;;;;2.40;0.80;;;26.20;58.20;;;;;;5012058;28;20236;-80
2023/07/21 12:15:52;;;;;;;2.10;1.00;;;26.00;59.00;;;;;;5024903;28;20213;-80
2023/07/21 12:18:20;;;;;;;3.08;1.13;;;25.90;59.40;;;;;;5026064;28;20249;-80
2023/07/21 12:20:47;;;;;;;1.15;0.82;;;25.90;59.10;;;;;;5025112;28;20327;-80
2023/07/21 12:23:14;;;;;;;2.78;1.00;;;25.80;59.30;;;;;;5014933;28;20237;-80
2023/07/21 12:25:41;;;;;;;2.60;0.85;;;25.80;59.50;;;;;;5010888;28;20229;-80
2023/07/21 12:28:08;;;;;;;1.15;0.85;;;25.90;59.50;;;;;;5044003;28;20228;-80
2023/07/21 12:30:34;;;;;;;1.98;1.00;;;25.90;59.50;;;;;;5024415;28;20227;-80
2023/07/21 12:33:01;;;;;;;1.23;0.90;;;26.00;59.30;;;;;;5011406;28;20239;-80
2023/07/21 12:35:29;;;;;;;1.83;1.00;;;26.10;58.50;;;;;;5010013;28;20225;-80
2023/07/21 12:37:56;;;;;;;0.93;0.88;;;26.30;58.90;;;;;;5027668;28;20319;-79
2023/07/21 12:40:22;;;;;;;1.75;1.00;;;26.50;59.00;;;;;;5025886;28;20912;-80
2023/07/21 12:42:49;;;;;;;1.95;1.00;;;26.70;58.40;;;;;;5023628;28;21789;-80
2023/07/21 12:45:16;;;;;;;1.30;0.90;;;26.90;59.50;;;;;;5041083;28;20232;-79
2023/07/21 12:47:42;;;;;;;1.33;1.00;;;27.00;57.90;;;;;;5040029;28;20228;-79
2023/07/21 12:50:09;;;;;;;1.58;1.05;;;27.10;58.80;;;;;;5011261;28;20717;-80
2023/07/21 12:52:37;;;;;;;1.88;0.88;;;27.20;57.90;;;;;;5005989;28;20256;-80
2023/07/21 12:55:05;;;;;;;1.40;0.80;;;27.30;57.70;;;;;;5007975;28;20598;-80
2023/07/21 12:57:32;;;;;;;2.20;0.88;;;27.40;58.30;;;;;;5027977;28;20227;-80
2023/07/21 12:59:59;;;;;;;1.95;1.00;;;27.50;59.00;;;;;;5028590;28;20417;-80